Time;durP1;ratioP1;P1;durP2;ratioP2;P2;SDS_P1;SDS_P2;PMS_P1;PMS_P2;Temp;Humidity;BMP_temperature;BMP_pressure;BME280_temperature;BME280_humidity;BME280_pressure;Samples;Min_cycle;Max_cycle;Signal;HPM_P1;HPM_P2
2022/06/27 00:00:51;;;;;;;1.05;1.05;;;;;;;;;;4974526;28;20050;-81
2022/06/27 00:03:17;;;;;;;1.30;0.95;;;;;;;;;;4978832;28;20060;-81
2022/06/27 00:05:42;;;;;;;0.85;0.85;;;;;;;;;;4979101;28;20069;-80
2022/06/27 00:08:08;;;;;;;1.05;0.75;;;;;;;;;;4978630;28;20037;-80
2022/06/27 00:10:33;;;;;;;0.95;0.77;;;;;;;;;;4979320;28;20027;-81
2022/06/27 00:12:59;;;;;;;1.95;0.63;;;;;;;;;;4981178;28;20486;-82
2022/06/27 00:15:24;;;;;;;0.60;0.50;;;;;;;;;;4975758;28;20055;-80
2022/06/27 00:17:50;;;;;;;1.65;0.82;;;;;;;;;;4979255;28;20453;-81
2022/06/27 00:20:15;;;;;;;1.00;0.68;;;;;;;;;;4982834;28;20053;-81
2022/06/27 00:22:41;;;;;;;2.22;0.65;;;;;;;;;;4978938;28;20038;-83
2022/06/27 00:25:08;;;;;;;0.52;0.45;;;;;;;;;;4979059;28;20393;-84
2022/06/27 00:27:33;;;;;;;1.10;0.77;;;;;;;;;;4988965;28;20026;-82
2022/06/27 00:29:58;;;;;;;0.60;0.60;;;;;;;;;;4978387;28;20045;-83
2022/06/27 00:32:26;;;;;;;1.52;0.80;;;;;;;;;;4979958;28;20093;-84
2022/06/27 00:34:52;;;;;;;2.22;1.00;;;;;;;;;;4972982;28;20503;-84
2022/06/27 00:37:17;;;;;;;0.55;0.55;;;;;;;;;;4979462;28;20073;-84
2022/06/27 00:39:42;;;;;;;0.68;0.68;;;;;;;;;;4985010;28;20473;-84
2022/06/27 00:42:08;;;;;;;0.88;0.60;;;;;;;;;;4983608;28;20108;-84
2022/06/27 00:44:41;;;;;;;2.08;1.02;;;;;;;;;;4973421;28;20031;-85
2022/06/27 00:47:09;;;;;;;4.57;0.70;;;;;;;;;;4970736;28;20031;-83
2022/06/27 00:49:35;;;;;;;0.73;0.73;;;;;;;;;;4977497;28;20034;-84
2022/06/27 00:52:06;;;;;;;3.45;0.80;;;;;;;;;;4971361;28;20026;-83
2022/06/27 00:54:32;;;;;;;2.60;0.87;;;;;;;;;;4953883;28;20457;-83
2022/06/27 00:56:58;;;;;;;1.55;0.88;;;;;;;;;;4980731;28;20110;-83
2022/06/27 00:59:24;;;;;;;1.30;0.90;;;;;;;;;;4979540;28;20046;-83
2022/06/27 01:01:49;;;;;;;1.02;0.60;;;;;;;;;;4977095;28;20038;-82
2022/06/27 01:04:15;;;;;;;4.20;1.10;;;;;;;;;;4972527;28;20027;-83
2022/06/27 01:06:41;;;;;;;4.30;0.88;;;;;;;;;;4981564;28;20026;-85
2022/06/27 01:09:07;;;;;;;3.88;0.82;;;;;;;;;;4970591;28;20173;-83
2022/06/27 01:11:33;;;;;;;2.15;0.70;;;;;;;;;;4984089;28;20114;-86
2022/06/27 01:13:58;;;;;;;2.58;0.65;;;;;;;;;;4981405;28;20082;-84
2022/06/27 01:16:24;;;;;;;1.90;0.60;;;;;;;;;;4976007;28;20038;-86
2022/06/27 01:18:50;;;;;;;0.65;0.50;;;;;;;;;;4978829;28;20037;-83
2022/06/27 01:21:21;;;;;;;1.38;0.50;;;;;;;;;;4978681;28;20110;-83
2022/06/27 01:23:49;;;;;;;3.70;1.05;;;;;;;;;;4956407;28;20037;-86
2022/06/27 01:26:15;;;;;;;2.38;0.77;;;;;;;;;;4957784;28;20386;-84
2022/06/27 01:28:41;;;;;;;1.00;0.77;;;;;;;;;;4978226;28;20026;-84
2022/06/27 01:31:06;;;;;;;2.95;0.80;;;;;;;;;;4968571;28;20026;-83
2022/06/27 01:33:31;;;;;;;1.25;0.60;;;;;;;;;;4978416;28;20080;-83
2022/06/27 01:38:41;;;;;;;1.30;0.75;;;;;;;;;;4975287;28;20142;-82
2022/06/27 01:41:07;;;;;;;1.48;0.90;;;;;;;;;;4967325;28;20031;-82
2022/06/27 01:43:33;;;;;;;1.35;0.70;;;;;;;;;;4968854;28;20093;-81
2022/06/27 01:45:59;;;;;;;1.88;0.73;;;;;;;;;;4971118;28;20031;-82
2022/06/27 01:48:25;;;;;;;2.80;0.88;;;;;;;;;;4972828;28;20034;-82
2022/06/27 01:50:54;;;;;;;0.82;0.68;;;;;;;;;;4973560;28;20019;-83
2022/06/27 01:53:20;;;;;;;0.70;0.70;;;;;;;;;;4967516;28;20026;-83
2022/06/27 01:55:46;;;;;;;2.85;0.77;;;;;;;;;;4970268;28;20048;-82
2022/06/27 01:58:11;;;;;;;0.57;0.57;;;;;;;;;;4971774;28;20392;-82
2022/06/27 02:00:37;;;;;;;4.07;0.80;;;;;;;;;;4956948;28;20031;-82
2022/06/27 02:03:03;;;;;;;1.05;0.68;;;;;;;;;;4980597;28;20309;-82
2022/06/27 02:05:29;;;;;;;0.50;0.47;;;;;;;;;;4974056;28;20110;-82
2022/06/27 02:07:57;;;;;;;2.50;0.63;;;;;;;;;;4974606;28;20049;-82
2022/06/27 02:10:22;;;;;;;7.95;1.10;;;;;;;;;;4965682;28;20070;-81
2022/06/27 02:12:48;;;;;;;0.52;0.52;;;;;;;;;;4976369;28;20034;-82
2022/06/27 02:15:14;;;;;;;2.03;0.73;;;;;;;;;;4959414;28;20030;-82
2022/06/27 02:17:39;;;;;;;0.82;0.70;;;;;;;;;;4976546;28;20463;-82
2022/06/27 02:20:06;;;;;;;1.30;0.85;;;;;;;;;;4972108;28;20027;-82
2022/06/27 02:22:31;;;;;;;1.85;1.20;;;;;;;;;;4976406;28;20027;-82
2022/06/27 02:24:57;;;;;;;2.00;0.70;;;;;;;;;;4971055;28;20393;-82
2022/06/27 02:27:23;;;;;;;3.10;0.90;;;;;;;;;;4976358;28;20109;-81
2022/06/27 02:29:49;;;;;;;4.00;0.82;;;;;;;;;;4968923;28;20093;-80
2022/06/27 02:32:14;;;;;;;1.17;0.80;;;;;;;;;;4968942;28;20026;-81
2022/06/27 02:34:41;;;;;;;1.67;1.10;;;;;;;;;;4964695;28;20035;-81
2022/06/27 02:37:07;;;;;;;2.33;0.80;;;;;;;;;;4972016;28;20023;-81
2022/06/27 02:39:35;;;;;;;4.13;1.02;;;;;;;;;;4980292;28;20038;-82
2022/06/27 02:42:02;;;;;;;1.75;1.23;;;;;;;;;;4977537;28;20034;-81
2022/06/27 02:44:28;;;;;;;2.45;1.00;;;;;;;;;;4975159;28;20031;-82
2022/06/27 02:46:54;;;;;;;2.28;0.82;;;;;;;;;;4976026;28;20015;-82
2022/06/27 02:49:20;;;;;;;1.15;1.00;;;;;;;;;;4973499;28;20027;-81
2022/06/27 02:52:27;;;;;;;1.15;1.13;;;;;;;;;;4974049;28;20125;-80
2022/06/27 02:55:01;;;;;;;4.50;1.20;;;;;;;;;;4954006;28;20417;-82
2022/06/27 02:57:40;;;;;;;3.15;1.17;;;;;;;;;;4976987;28;20027;-81
2022/06/27 03:00:07;;;;;;;2.58;1.35;;;;;;;;;;4965720;28;20019;-82
2022/06/27 03:02:35;;;;;;;5.70;1.33;;;;;;;;;;4974313;28;20041;-81
2022/06/27 03:05:01;;;;;;;5.68;1.50;;;;;;;;;;4969664;28;20038;-80
2022/06/27 03:07:26;;;;;;;2.53;1.70;;;;;;;;;;4959142;28;20415;-80
2022/06/27 03:09:52;;;;;;;1.88;1.02;;;;;;;;;;4971859;28;20070;-83
2022/06/27 03:12:17;;;;;;;1.40;1.23;;;;;;;;;;4962845;28;20023;-83
2022/06/27 03:14:43;;;;;;;1.73;0.98;;;;;;;;;;4969807;28;20019;-83
2022/06/27 03:17:08;;;;;;;1.23;0.98;;;;;;;;;;4976768;28;20034;-83
2022/06/27 03:19:33;;;;;;;3.75;1.10;;;;;;;;;;4968731;28;20878;-82
2022/06/27 03:21:59;;;;;;;1.83;1.10;;;;;;;;;;4976177;28;20035;-83
2022/06/27 03:24:24;;;;;;;1.65;1.10;;;;;;;;;;4969127;28;20085;-82
2022/06/27 03:26:49;;;;;;;1.35;1.23;;;;;;;;;;4976886;28;20203;-82
2022/06/27 03:29:15;;;;;;;2.53;1.20;;;;;;;;;;4972573;28;20158;-82
2022/06/27 03:31:41;;;;;;;1.70;0.95;;;;;;;;;;4976015;28;20055;-81
2022/06/27 03:34:07;;;;;;;1.67;0.70;;;;;;;;;;4972335;28;20520;-80
2022/06/27 03:36:32;;;;;;;1.95;0.98;;;;;;;;;;4959235;28;20034;-81
2022/06/27 03:38:58;;;;;;;1.75;1.27;;;;;;;;;;4960040;28;20100;-81
2022/06/27 03:41:23;;;;;;;1.58;1.10;;;;;;;;;;4977671;28;20396;-80
2022/06/27 03:43:49;;;;;;;1.02;1.00;;;;;;;;;;4973308;28;20054;-80
2022/06/27 03:46:14;;;;;;;1.42;1.33;;;;;;;;;;4976438;28;20117;-81
2022/06/27 03:51:23;;;;;;;1.17;1.17;;;;;;;;;;4986778;28;20046;-79
2022/06/27 03:53:48;;;;;;;1.48;1.25;;;;;;;;;;4996836;28;20031;-79
2022/06/27 03:56:14;;;;;;;1.75;0.98;;;;;;;;;;4972595;28;20027;-80
2022/06/27 03:58:39;;;;;;;1.55;1.30;;;;;;;;;;4992365;28;20035;-82
2022/06/27 04:01:05;;;;;;;3.05;1.23;;;;;;;;;;4991500;28;20046;-82
2022/06/27 04:03:30;;;;;;;4.93;1.15;;;;;;;;;;4999306;28;20091;-81
2022/06/27 04:05:56;;;;;;;1.33;1.05;;;;;;;;;;4997818;28;20011;-82
2022/06/27 04:08:21;;;;;;;3.33;1.10;;;;;;;;;;4989292;28;20027;-81
2022/06/27 04:10:47;;;;;;;3.10;1.45;;;;;;;;;;4983176;28;20019;-81
2022/06/27 04:13:12;;;;;;;1.40;1.30;;;;;;;;;;4992637;28;20038;-83
2022/06/27 04:15:38;;;;;;;1.98;1.30;;;;;;;;;;4975605;28;20481;-83
2022/06/27 04:18:04;;;;;;;4.28;1.73;;;;;;;;;;4972488;28;20046;-83
2022/06/27 04:20:29;;;;;;;2.28;1.23;;;;;;;;;;4967924;28;20389;-82
2022/06/27 04:22:54;;;;;;;1.85;1.23;;;;;;;;;;4984279;28;20469;-82
2022/06/27 04:25:20;;;;;;;4.63;1.25;;;;;;;;;;4972000;28;20094;-82
2022/06/27 04:27:45;;;;;;;5.75;1.40;;;;;;;;;;4978684;28;20023;-81
2022/06/27 04:30:18;;;;;;;2.78;1.27;;;;;;;;;;4971860;28;20037;-81
2022/06/27 04:32:45;;;;;;;4.70;1.45;;;;;;;;;;4978213;28;20019;-82
2022/06/27 04:35:12;;;;;;;2.97;1.60;;;;;;;;;;4972366;28;20029;-83
2022/06/27 04:37:42;;;;;;;3.67;1.38;;;;;;;;;;4960025;28;20023;-82
2022/06/27 04:40:10;;;;;;;3.42;1.30;;;;;;;;;;4974049;28;20549;-82
2022/06/27 04:42:36;;;;;;;3.40;1.25;;;;;;;;;;4972216;28;20054;-82
2022/06/27 04:45:03;;;;;;;5.72;1.50;;;;;;;;;;4974297;28;20088;-82
2022/06/27 04:47:29;;;;;;;2.53;1.77;;;;;;;;;;4976159;28;20118;-83
2022/06/27 04:49:55;;;;;;;3.22;1.80;;;;;;;;;;4973306;28;20094;-82
2022/06/27 04:52:20;;;;;;;2.70;1.88;;;;;;;;;;4974582;28;20057;-80
2022/06/27 04:54:45;;;;;;;2.08;1.48;;;;;;;;;;4975850;28;20035;-82
2022/06/27 04:57:12;;;;;;;4.38;1.77;;;;;;;;;;4957596;28;20034;-82
2022/06/27 05:00:28;;;;;;;3.25;1.60;;;;;;;;;;4976792;28;20054;-83
2022/06/27 05:02:54;;;;;;;4.72;1.80;;;;;;;;;;4977214;28;20046;-83
2022/06/27 05:05:19;;;;;;;3.25;1.75;;;;;;;;;;4977584;28;20045;-82
2022/06/27 05:07:44;;;;;;;2.10;1.45;;;;;;;;;;4977844;28;20077;-81
2022/06/27 05:10:10;;;;;;;4.28;1.70;;;;;;;;;;4976729;28;20081;-80
2022/06/27 05:12:35;;;;;;;3.45;1.52;;;;;;;;;;4978506;28;20019;-82
2022/06/27 05:15:01;;;;;;;3.17;1.27;;;;;;;;;;4978550;28;20027;-81
2022/06/27 05:17:26;;;;;;;1.70;1.40;;;;;;;;;;4958724;28;20061;-80
2022/06/27 05:19:52;;;;;;;1.98;1.60;;;;;;;;;;4976853;28;20393;-81
2022/06/27 05:22:18;;;;;;;2.50;1.20;;;;;;;;;;4977024;28;20031;-80
2022/06/27 05:24:43;;;;;;;2.30;1.70;;;;;;;;;;4977056;28;20026;-80
2022/06/27 05:27:11;;;;;;;2.45;1.45;;;;;;;;;;4978387;28;20022;-81
2022/06/27 05:29:37;;;;;;;4.93;1.70;;;;;;;;;;4962955;28;20029;-81
2022/06/27 05:32:03;;;;;;;3.42;1.60;;;;;;;;;;4979866;28;20109;-83
2022/06/27 05:34:29;;;;;;;3.40;1.85;;;;;;;;;;4980082;28;20061;-80
2022/06/27 05:36:54;;;;;;;3.97;1.30;;;;;;;;;;4980203;28;20026;-83
2022/06/27 05:39:20;;;;;;;5.25;1.65;;;;;;;;;;4980043;28;20027;-84
2022/06/27 05:41:45;;;;;;;2.17;1.60;;;;;;;;;;4975477;28;20030;-83
2022/06/27 05:44:13;;;;;;;1.88;1.40;;;;;;;;;;4975749;28;20601;-83
2022/06/27 05:46:39;;;;;;;2.72;1.30;;;;;;;;;;4980992;28;20035;-80
2022/06/27 05:49:04;;;;;;;2.00;1.20;;;;;;;;;;4980288;28;20026;-82
2022/06/27 05:51:30;;;;;;;1.67;1.50;;;;;;;;;;4972679;28;20434;-81
2022/06/27 05:54:00;;;;;;;2.40;1.70;;;;;;;;;;4981254;28;20038;-81
2022/06/27 05:56:26;;;;;;;2.35;1.77;;;;;;;;;;4980555;28;20098;-82
2022/06/27 05:58:51;;;;;;;3.10;1.50;;;;;;;;;;4981017;28;20070;-82
2022/06/27 06:01:17;;;;;;;3.53;1.60;;;;;;;;;;4980612;28;20037;-82
2022/06/27 06:03:43;;;;;;;1.60;1.20;;;;;;;;;;4978298;28;20019;-82
2022/06/27 06:06:08;;;;;;;2.42;1.40;;;;;;;;;;4978222;28;20081;-82
2022/06/27 06:08:36;;;;;;;0.93;0.93;;;;;;;;;;4978814;28;20073;-81
2022/06/27 06:11:02;;;;;;;1.05;0.80;;;;;;;;;;4977911;28;20037;-82
2022/06/27 06:13:28;;;;;;;0.95;0.85;;;;;;;;;;4977495;28;20086;-82
2022/06/27 06:15:53;;;;;;;2.80;1.10;;;;;;;;;;4978338;28;20066;-80
2022/06/27 06:18:19;;;;;;;3.70;1.10;;;;;;;;;;4975236;28;20070;-81
2022/06/27 06:20:45;;;;;;;1.98;0.90;;;;;;;;;;4977407;28;20031;-82
2022/06/27 06:23:10;;;;;;;1.20;1.10;;;;;;;;;;4975946;28;20027;-82
2022/06/27 06:25:36;;;;;;;2.72;1.02;;;;;;;;;;4977795;28;20097;-81
2022/06/27 06:28:03;;;;;;;1.10;1.05;;;;;;;;;;4977763;28;20086;-81
2022/06/27 06:30:30;;;;;;;2.42;1.20;;;;;;;;;;4977954;28;20030;-81
2022/06/27 06:32:57;;;;;;;2.13;1.20;;;;;;;;;;4977260;28;20058;-81
2022/06/27 06:35:23;;;;;;;1.35;1.10;;;;;;;;;;4975072;28;20034;-82
2022/06/27 06:37:50;;;;;;;2.28;1.40;;;;;;;;;;4966700;28;20033;-82
2022/06/27 06:40:16;;;;;;;3.30;1.10;;;;;;;;;;4978757;28;20030;-83
2022/06/27 06:42:41;;;;;;;2.20;0.88;;;;;;;;;;4979791;28;20053;-82
2022/06/27 06:45:07;;;;;;;1.92;1.33;;;;;;;;;;4976009;28;20023;-81
2022/06/27 06:47:33;;;;;;;1.40;1.30;;;;;;;;;;4975665;28;20470;-80
2022/06/27 06:49:59;;;;;;;2.17;1.40;;;;;;;;;;4975845;28;20019;-80
2022/06/27 06:52:24;;;;;;;2.38;1.20;;;;;;;;;;4975601;28;20030;-81
2022/06/27 06:54:50;;;;;;;1.65;1.13;;;;;;;;;;4976931;28;20030;-81
2022/06/27 06:57:16;;;;;;;1.45;1.20;;;;;;;;;;4965473;28;20031;-81
2022/06/27 06:59:41;;;;;;;2.35;1.20;;;;;;;;;;4975670;28;20049;-81
2022/06/27 07:02:08;;;;;;;3.05;1.10;;;;;;;;;;4987908;28;20055;-83
2022/06/27 07:04:34;;;;;;;2.28;1.02;;;;;;;;;;4979418;28;20030;-80
2022/06/27 07:07:00;;;;;;;1.67;1.00;;;;;;;;;;4974946;28;20022;-80
2022/06/27 07:09:26;;;;;;;0.85;0.85;;;;;;;;;;4976091;28;20030;-81
2022/06/27 07:11:51;;;;;;;4.43;1.40;;;;;;;;;;4977562;28;20033;-82
2022/06/27 07:14:17;;;;;;;1.42;1.27;;;;;;;;;;4960672;28;20185;-83
2022/06/27 07:16:42;;;;;;;2.72;1.15;;;;;;;;;;4980446;28;20022;-81
2022/06/27 07:19:08;;;;;;;1.45;1.00;;;;;;;;;;4983032;28;20053;-81
2022/06/27 07:21:34;;;;;;;4.25;1.40;;;;;;;;;;4977253;28;20562;-81
2022/06/27 07:24:01;;;;;;;2.13;1.17;;;;;;;;;;4975858;28;20057;-80
2022/06/27 07:26:27;;;;;;;3.10;1.30;;;;;;;;;;4976300;28;20485;-81
2022/06/27 07:28:53;;;;;;;1.50;1.38;;;;;;;;;;4975267;28;20485;-80
2022/06/27 07:31:19;;;;;;;2.03;1.48;;;;;;;;;;4968163;28;20104;-80
2022/06/27 07:33:51;;;;;;;2.33;2.13;;;;;;;;;;4976870;28;20377;-82
2022/06/27 07:36:18;;;;;;;9.30;8.05;;;;;;;;;;4979316;28;20101;-81
2022/06/27 07:38:49;;;;;;;2.50;2.05;;;;;;;;;;4978934;28;20049;-81
2022/06/27 07:41:16;;;;;;;1.85;1.50;;;;;;;;;;4975550;28;20015;-80
2022/06/27 07:43:46;;;;;;;2.65;1.30;;;;;;;;;;4975618;28;20113;-81
2022/06/27 07:46:12;;;;;;;2.10;1.45;;;;;;;;;;4972766;28;20027;-81
2022/06/27 07:48:37;;;;;;;1.83;1.33;;;;;;;;;;4974160;28;20035;-81
2022/06/27 07:51:03;;;;;;;3.83;1.27;;;;;;;;;;4975497;28;20027;-82
2022/06/27 07:53:29;;;;;;;1.50;1.40;;;;;;;;;;4974684;28;20030;-82
2022/06/27 07:55:57;;;;;;;1.40;1.30;;;;;;;;;;4975136;28;20042;-83
2022/06/27 07:58:33;;;;;;;2.00;1.50;;;;;;;;;;4978845;28;20027;-82
2022/06/27 08:01:00;;;;;;;6.32;1.20;;;;;;;;;;4980334;28;20037;-83
2022/06/27 08:03:44;;;;;;;1.17;1.13;;;;;;;;;;4979405;28;20034;-82
2022/06/27 08:06:15;;;;;;;2.10;1.23;;;;;;;;;;4975128;28;20042;-82
2022/06/27 08:09:02;;;;;;;1.13;1.00;;;;;;;;;;4980045;28;20035;-82
2022/06/27 08:11:30;;;;;;;1.10;1.10;;;;;;;;;;4977042;28;20042;-81
2022/06/27 08:13:58;;;;;;;1.20;1.10;;;;;;;;;;4979008;28;20482;-82
2022/06/27 08:16:26;;;;;;;3.40;1.27;;;;;;;;;;4979978;28;20082;-81
2022/06/27 08:18:52;;;;;;;3.03;1.20;;;;;;;;;;4976199;28;20027;-81
2022/06/27 08:21:21;;;;;;;2.55;1.10;;;;;;;;;;4973181;28;20490;-81
2022/06/27 08:23:48;;;;;;;1.10;1.10;;;;;;;;;;4979830;28;20034;-81
2022/06/27 08:26:14;;;;;;;1.42;1.27;;;;;;;;;;4978589;28;20102;-81
2022/06/27 08:28:42;;;;;;;0.93;0.93;;;;;;;;;;4979653;28;20501;-80
2022/06/27 08:31:12;;;;;;;1.00;1.00;;;;;;;;;;4979287;28;20023;-81
2022/06/27 08:33:39;;;;;;;3.08;1.00;;;;;;;;;;4978524;28;20034;-80
2022/06/27 08:36:05;;;;;;;1.63;1.23;;;;;;;;;;4961056;28;20030;-80
2022/06/27 08:38:42;;;;;;;1.20;1.08;;;;;;;;;;4978077;28;20029;-82
2022/06/27 08:41:09;;;;;;;1.08;0.93;;;;;;;;;;4977780;28;20390;-81
2022/06/27 08:43:36;;;;;;;1.05;1.00;;;;;;;;;;4973206;28;20019;-80
2022/06/27 08:46:02;;;;;;;0.75;0.75;;;;;;;;;;4968684;23;20173;-84
2022/06/27 08:48:32;;;;;;;1.23;1.13;;;;;;;;;;4978773;28;20041;-85
2022/06/27 08:50:59;;;;;;;1.05;0.95;;;;;;;;;;4969012;28;20400;-85
2022/06/27 08:53:25;;;;;;;1.25;0.90;;;;;;;;;;4973144;28;20041;-83
2022/06/27 08:55:51;;;;;;;2.28;1.10;;;;;;;;;;4973137;28;20087;-86
2022/06/27 08:58:16;;;;;;;1.15;0.93;;;;;;;;;;4978005;28;20096;-85
2022/06/27 09:00:45;;;;;;;3.42;1.17;;;;;;;;;;4977103;28;20103;-85
2022/06/27 09:03:18;;;;;;;1.98;1.20;;;;;;;;;;4970950;28;20026;-85
2022/06/27 09:05:57;;;;;;;1.65;1.08;;;;;;;;;;4976807;28;20542;-85
2022/06/27 09:08:25;;;;;;;1.30;1.10;;;;;;;;;;4973463;28;20437;-85
2022/06/27 09:10:52;;;;;;;2.15;1.27;;;;;;;;;;4978027;28;20027;-85
2022/06/27 09:13:19;;;;;;;1.73;1.25;;;;;;;;;;4988163;28;20026;-86
2022/06/27 09:16:04;;;;;;;1.45;1.35;;;;;;;;;;4976014;28;20118;-85
2022/06/27 09:18:37;;;;;;;1.50;1.40;;;;;;;;;;4974061;28;20447;-85
2022/06/27 09:21:05;;;;;;;1.75;1.27;;;;;;;;;;4972046;28;20034;-85
2022/06/27 09:23:35;;;;;;;1.65;1.15;;;;;;;;;;4982259;28;20035;-85
2022/06/27 09:26:15;;;;;;;3.17;1.40;;;;;;;;;;4973165;28;20030;-85
2022/06/27 09:29:08;;;;;;;1.23;1.10;;;;;;;;;;4960473;28;20026;-86
2022/06/27 09:31:39;;;;;;;1.40;1.20;;;;;;;;;;4979670;28;20046;-85
2022/06/27 09:34:19;;;;;;;2.55;1.35;;;;;;;;;;4975344;28;20477;-85
2022/06/27 09:36:52;;;;;;;2.08;1.00;;;;;;;;;;4966150;28;20263;-85
2022/06/27 09:39:30;;;;;;;4.47;1.58;;;;;;;;;;4956117;28;20342;-86
2022/06/27 09:42:02;;;;;;;1.33;1.23;;;;;;;;;;4977669;28;20034;-85
2022/06/27 09:44:38;;;;;;;2.75;1.70;;;;;;;;;;4977512;28;20055;-86
2022/06/27 09:47:12;;;;;;;1.90;1.50;;;;;;;;;;4975491;28;20035;-85
2022/06/27 09:49:42;;;;;;;1.67;1.42;;;;;;;;;;4971461;28;20022;-86
2022/06/27 09:52:12;;;;;;;1.97;1.77;;;;;;;;;;4977145;28;20026;-85
2022/06/27 09:54:41;;;;;;;1.75;1.65;;;;;;;;;;4977145;28;20033;-86
2022/06/27 09:57:08;;;;;;;1.83;1.58;;;;;;;;;;4978022;28;20030;-85
2022/06/27 09:59:35;;;;;;;3.47;1.65;;;;;;;;;;4986210;28;20038;-86
2022/06/27 10:02:01;;;;;;;2.30;2.00;;;;;;;;;;4984148;28;20061;-85
2022/06/27 10:04:28;;;;;;;2.80;1.63;;;;;;;;;;4981598;28;20022;-86
2022/06/27 10:06:54;;;;;;;4.28;1.77;;;;;;;;;;4983029;28;20033;-87
2022/06/27 10:09:24;;;;;;;2.15;1.95;;;;;;;;;;4982551;28;20420;-86
2022/06/27 10:12:22;;;;;;;3.08;1.80;;;;;;;;;;4981115;28;20023;-87
2022/06/27 10:15:09;;;;;;;3.55;2.05;;;;;;;;;;4969543;28;20034;-87
2022/06/27 10:17:46;;;;;;;4.03;2.33;;;;;;;;;;4980067;28;20043;-84
2022/06/27 10:20:28;;;;;;;3.72;2.08;;;;;;;;;;4989572;28;20062;-84
2022/06/27 10:23:08;;;;;;;2.25;2.03;;;;;;;;;;4967926;28;20115;-86
2022/06/27 10:25:44;;;;;;;2.53;1.67;;;;;;;;;;4976898;28;20035;-87
2022/06/27 10:28:13;;;;;;;1.73;1.63;;;;;;;;;;4971312;28;20042;-85
2022/06/27 10:30:39;;;;;;;1.63;1.52;;;;;;;;;;4989321;28;20032;-81
2022/06/27 10:33:27;;;;;;;3.92;1.77;;;;;;;;;;4995510;28;20323;-83
2022/06/27 10:35:59;;;;;;;2.13;1.80;;;;;;;;;;4968825;28;20031;-86
2022/06/27 10:38:39;;;;;;;1.67;1.58;;;;;;;;;;4977613;28;20027;-83
2022/06/27 10:41:35;;;;;;;1.35;1.30;;;;;;;;;;4980094;28;20296;-87
2022/06/27 10:44:03;;;;;;;6.00;2.45;;;;;;;;;;4979956;28;20029;-85
2022/06/27 10:46:28;;;;;;;3.50;2.20;;;;;;;;;;4973507;28;20575;-85
2022/06/27 10:48:58;;;;;;;1.92;1.63;;;;;;;;;;4973049;28;20035;-85
2022/06/27 10:51:32;;;;;;;3.58;1.58;;;;;;;;;;4973649;28;20035;-86
2022/06/27 10:54:06;;;;;;;1.70;1.50;;;;;;;;;;4971178;28;20396;-85
2022/06/27 10:56:44;;;;;;;1.83;1.52;;;;;;;;;;4957461;28;20033;-83
2022/06/27 10:59:12;;;;;;;1.20;1.20;;;;;;;;;;4982265;28;20115;-87
2022/06/27 11:01:38;;;;;;;3.70;1.63;;;;;;;;;;4972613;28;20031;-86
2022/06/27 11:04:03;;;;;;;1.85;1.27;;;;;;;;;;4970358;28;20113;-84
2022/06/27 11:06:29;;;;;;;1.40;1.30;;;;;;;;;;4972330;28;20102;-84
2022/06/27 11:08:56;;;;;;;2.20;1.30;;;;;;;;;;4976650;28;20019;-85
2022/06/27 11:11:30;;;;;;;1.20;1.20;;;;;;;;;;4963874;28;20697;-84
2022/06/27 11:14:00;;;;;;;1.60;1.40;;;;;;;;;;4966735;28;20094;-84
2022/06/27 11:16:31;;;;;;;1.08;1.08;;;;;;;;;;4965729;28;20031;-83
2022/06/27 11:19:01;;;;;;;2.33;1.47;;;;;;;;;;4964453;28;20062;-84
2022/06/27 11:21:33;;;;;;;2.25;1.23;;;;;;;;;;4970344;28;20027;-85
2022/06/27 11:24:01;;;;;;;2.22;1.88;;;;;;;;;;4974231;28;20034;-87
2022/06/27 11:26:35;;;;;;;1.60;1.50;;;;;;;;;;4972745;28;20473;-84
2022/06/27 11:32:05;;;;;;;1.50;1.40;;;;;;;;;;4973215;28;20129;-86
2022/06/27 11:34:36;;;;;;;2.30;1.52;;;;;;;;;;4972433;28;20050;-86
2022/06/27 11:37:13;;;;;;;1.40;1.30;;;;;;;;;;4972553;28;20034;-86
2022/06/27 11:39:39;;;;;;;1.27;1.20;;;;;;;;;;4971253;28;20043;-84
2022/06/27 11:42:10;;;;;;;2.15;1.70;;;;;;;;;;4974071;28;20085;-85
2022/06/27 11:44:55;;;;;;;1.75;1.65;;;;;;;;;;4968555;28;20058;-86
2022/06/27 11:47:26;;;;;;;4.57;1.80;;;;;;;;;;4974000;28;20025;-84
2022/06/27 11:50:00;;;;;;;3.15;1.55;;;;;;;;;;4970868;28;20051;-85
2022/06/27 11:52:38;;;;;;;2.00;1.63;;;;;;;;;;4976367;28;20038;-84
2022/06/27 11:55:25;;;;;;;2.17;2.00;;;;;;;;;;4985301;28;20110;-83
2022/06/27 11:57:54;;;;;;;2.78;1.50;;;;;;;;;;4952098;28;20118;-84
2022/06/27 12:00:24;;;;;;;3.10;1.63;;;;;;;;;;4959434;28;20031;-84
2022/06/27 12:03:02;;;;;;;1.58;1.48;;;;;;;;;;4965771;28;20027;-84
2022/06/27 12:05:28;;;;;;;2.13;1.60;;;;;;;;;;4982730;28;20031;-87
2022/06/27 12:08:09;;;;;;;1.80;1.63;;;;;;;;;;4985701;28;20026;-85
2022/06/27 12:10:35;;;;;;;4.60;1.60;;;;;;;;;;4962219;28;20031;-85
2022/06/27 12:13:15;;;;;;;2.85;1.60;;;;;;;;;;4993147;28;20030;-86
2022/06/27 12:15:45;;;;;;;1.90;1.77;;;;;;;;;;4978227;28;20035;-84
2022/06/27 12:18:15;;;;;;;1.90;1.73;;;;;;;;;;4981875;28;20472;-83
2022/06/27 12:20:43;;;;;;;3.63;1.67;;;;;;;;;;4963129;28;20552;-84
2022/06/27 12:23:09;;;;;;;1.90;1.80;;;;;;;;;;4977034;28;20469;-85
2022/06/27 12:25:35;;;;;;;2.45;1.90;;;;;;;;;;4980309;28;20072;-86
2022/06/27 12:28:05;;;;;;;1.92;1.52;;;;;;;;;;4984137;28;20015;-85
2022/06/27 12:30:32;;;;;;;1.63;1.52;;;;;;;;;;4969904;28;20030;-85
2022/06/27 12:32:57;;;;;;;2.08;1.80;;;;;;;;;;4970850;28;20030;-84
2022/06/27 12:35:23;;;;;;;2.53;1.95;;;;;;;;;;4970128;28;20038;-86
2022/06/27 12:37:48;;;;;;;1.70;1.48;;;;;;;;;;4980598;28;20023;-85
2022/06/27 12:40:14;;;;;;;2.42;1.63;;;;;;;;;;4974581;28;20054;-83
2022/06/27 12:42:47;;;;;;;3.63;1.63;;;;;;;;;;4967163;28;20027;-85
2022/06/27 12:45:58;;;;;;;2.92;1.88;;;;;;;;;;4962322;28;20027;-84
2022/06/27 12:49:16;;;;;;;;;;;;;;;;;;;;;
2022/06/27 12:51:49;;;;;;;2.05;1.50;;;;;;;;;;4977783;28;20637;-84
2022/06/27 12:54:15;;;;;;;1.88;1.70;;;;;;;;;;4974442;28;20033;-84
2022/06/27 12:57:30;;;;;;;1.60;1.35;;;;;;;;;;4971480;28;20055;-84
2022/06/27 12:59:55;;;;;;;1.38;1.27;;;;;;;;;;4960277;28;20039;-85
2022/06/27 13:02:21;;;;;;;1.48;1.30;;;;;;;;;;4986049;28;20022;-85
2022/06/27 13:04:46;;;;;;;1.73;1.30;;;;;;;;;;4959672;28;20082;-84
2022/06/27 13:07:15;;;;;;;1.05;1.02;;;;;;;;;;4973286;28;20031;-85
2022/06/27 13:09:40;;;;;;;1.13;1.10;;;;;;;;;;4971765;28;20034;-84
2022/06/27 13:12:06;;;;;;;1.00;1.00;;;;;;;;;;4994359;28;20476;-85
2022/06/27 13:14:35;;;;;;;1.38;0.95;;;;;;;;;;4983304;28;20085;-86
2022/06/27 13:17:03;;;;;;;1.02;1.00;;;;;;;;;;4980502;28;20061;-86
2022/06/27 13:19:29;;;;;;;2.08;1.08;;;;;;;;;;4987371;28;20171;-86
2022/06/27 13:21:54;;;;;;;2.97;1.23;;;;;;;;;;4989515;28;20167;-86
2022/06/27 13:24:19;;;;;;;3.58;1.35;;;;;;;;;;4973469;28;20023;-85
2022/06/27 13:26:45;;;;;;;1.60;1.30;;;;;;;;;;4970692;28;20081;-85
2022/06/27 13:29:11;;;;;;;2.75;1.13;;;;;;;;;;4984176;28;20419;-85
2022/06/27 13:31:39;;;;;;;1.23;1.13;;;;;;;;;;4975520;28;20029;-85
2022/06/27 13:34:05;;;;;;;2.60;1.42;;;;;;;;;;4970489;28;20043;-86
2022/06/27 13:36:31;;;;;;;1.25;1.20;;;;;;;;;;4974602;28;20038;-84
2022/06/27 13:38:56;;;;;;;3.83;1.38;;;;;;;;;;4973942;28;20015;-87
2022/06/27 13:41:22;;;;;;;3.45;1.63;;;;;;;;;;4982974;28;20046;-86
2022/06/27 13:43:47;;;;;;;3.50;1.38;;;;;;;;;;4984400;28;20046;-85
2022/06/27 13:46:13;;;;;;;2.88;1.60;;;;;;;;;;4977942;28;20392;-86
2022/06/27 13:48:38;;;;;;;1.50;1.20;;;;;;;;;;4978295;28;20019;-86
2022/06/27 13:51:04;;;;;;;1.80;1.70;;;;;;;;;;4971263;28;20365;-84
2022/06/27 13:53:30;;;;;;;2.25;1.35;;;;;;;;;;4975437;28;20027;-86
2022/06/27 13:55:55;;;;;;;4.38;1.52;;;;;;;;;;4983067;28;20014;-85
2022/06/27 13:58:21;;;;;;;1.60;1.38;;;;;;;;;;4974404;28;20393;-85
2022/06/27 14:00:46;;;;;;;1.25;1.20;;;;;;;;;;4977909;28;20033;-85
2022/06/27 14:03:12;;;;;;;1.40;1.30;;;;;;;;;;4960382;28;20106;-86
2022/06/27 14:05:37;;;;;;;2.33;1.30;;;;;;;;;;4963440;29;20034;-84
2022/06/27 14:08:03;;;;;;;1.30;1.20;;;;;;;;;;4973878;28;20042;-85
2022/06/27 14:10:29;;;;;;;4.32;1.40;;;;;;;;;;4982149;28;20037;-86
2022/06/27 14:12:55;;;;;;;1.52;1.42;;;;;;;;;;4973517;28;20420;-86
2022/06/27 14:15:21;;;;;;;1.50;1.40;;;;;;;;;;4986794;28;20073;-87
2022/06/27 14:17:48;;;;;;;1.85;1.75;;;;;;;;;;4971285;28;20026;-85
2022/06/27 14:20:15;;;;;;;1.23;1.13;;;;;;;;;;4960790;28;20105;-85
2022/06/27 14:22:41;;;;;;;1.42;1.20;;;;;;;;;;4988002;28;20027;-85
2022/06/27 14:25:07;;;;;;;3.33;1.27;;;;;;;;;;4970755;28;20027;-84
2022/06/27 14:27:33;;;;;;;1.27;1.25;;;;;;;;;;4967836;28;20499;-85
2022/06/27 14:30:03;;;;;;;1.40;1.30;;;;;;;;;;4980459;28;20035;-87
2022/06/27 14:32:29;;;;;;;2.05;1.45;;;;;;;;;;4974374;28;20506;-85
2022/06/27 14:34:55;;;;;;;1.20;1.20;;;;;;;;;;4964075;28;20074;-85
2022/06/27 14:37:20;;;;;;;1.40;1.30;;;;;;;;;;4985624;28;20077;-84
2022/06/27 14:39:46;;;;;;;4.75;1.45;;;;;;;;;;4977307;28;20102;-86
2022/06/27 14:42:11;;;;;;;1.95;1.50;;;;;;;;;;4979248;28;20432;-87
2022/06/27 14:44:37;;;;;;;1.95;1.27;;;;;;;;;;4982539;28;20070;-87
2022/06/27 14:47:04;;;;;;;3.83;1.52;;;;;;;;;;4976468;28;20022;-88
2022/06/27 14:49:30;;;;;;;2.78;1.40;;;;;;;;;;4951536;28;20038;-89
2022/06/27 14:51:56;;;;;;;2.17;1.50;;;;;;;;;;4983231;28;20050;-86
2022/06/27 14:54:21;;;;;;;2.95;1.50;;;;;;;;;;4979601;28;20109;-85
2022/06/27 14:56:47;;;;;;;1.80;1.63;;;;;;;;;;4967580;28;20026;-85
2022/06/27 14:59:12;;;;;;;3.95;1.92;;;;;;;;;;4970373;28;20085;-84